createdAt,value
2022-12-17T00:02:34.249Z,232.18
2022-12-17T00:05:19.588Z,223.10
2022-12-17T00:08:05.233Z,239.50
2022-12-17T00:10:50.670Z,237.30
2022-12-17T00:13:37.640Z,191.50
2022-12-17T00:16:23.595Z,237.07
2022-12-17T00:19:08.836Z,236.95
2022-12-17T00:21:56.287Z,200.98
2022-12-17T00:24:41.889Z,231.38
2022-12-17T00:27:27.240Z,194.45
2022-12-17T00:30:12.488Z,227.73
2022-12-17T00:32:57.822Z,210.77
2022-12-17T00:35:44.061Z,247.88
2022-12-17T00:38:34.122Z,199.70
2022-12-17T00:41:19.318Z,218.05
2022-12-17T00:44:04.746Z,184.65
2022-12-17T00:46:50.086Z,179.05
2022-12-17T00:49:38.177Z,222.73
2022-12-17T00:52:23.494Z,193.25
2022-12-17T00:55:08.548Z,216.02
2022-12-17T01:00:52.576Z,206.38
2022-12-17T01:03:41.709Z,220.00
2022-12-17T01:06:27.194Z,206.52
2022-12-17T01:09:13.778Z,209.68
2022-12-17T01:11:59.199Z,186.23
2022-12-17T01:14:45.053Z,212.93
2022-12-17T01:17:30.478Z,199.70
2022-12-17T01:20:15.653Z,184.02
2022-12-17T01:23:00.945Z,185.70
2022-12-17T01:25:46.225Z,212.02
2022-12-17T01:28:31.418Z,184.32
2022-12-17T01:31:16.846Z,192.52
2022-12-17T01:34:02.318Z,185.73
2022-12-17T01:36:47.589Z,201.27
2022-12-17T01:39:33.185Z,190.00
2022-12-17T01:42:18.553Z,175.48
2022-12-17T01:45:06.878Z,219.60
2022-12-17T01:47:52.379Z,178.50
2022-12-17T01:50:38.615Z,198.60
2022-12-17T01:53:24.919Z,212.77
2022-12-17T01:56:10.712Z,221.52
2022-12-17T01:58:56.710Z,199.15
2022-12-17T02:01:42.317Z,214.32
2022-12-17T02:04:27.682Z,183.70
2022-12-17T02:07:33.317Z,181.57
2022-12-17T02:10:41.291Z,179.98
2022-12-17T02:13:30.971Z,190.60
2022-12-17T02:16:27.687Z,187.68
2022-12-17T02:19:16.639Z,190.45
2022-12-17T02:22:03.525Z,189.45
2022-12-17T02:25:02.616Z,179.50
2022-12-17T02:27:49.188Z,187.73
2022-12-17T02:30:35.280Z,161.77
2022-12-17T02:33:21.030Z,156.98
2022-12-17T02:36:10.818Z,159.73
2022-12-17T02:38:56.666Z,160.35
2022-12-17T02:42:07.309Z,155.32
2022-12-17T02:44:54.312Z,164.20
2022-12-17T02:47:40.615Z,157.50
2022-12-17T02:50:26.523Z,126.78
2022-12-17T02:53:12.245Z,168.70
2022-12-17T02:55:57.427Z,154.90
2022-12-17T02:58:44.502Z,143.23
2022-12-17T03:01:31.693Z,119.35
2022-12-17T03:04:17.402Z,120.35
2022-12-17T03:07:04.326Z,111.80
2022-12-17T03:09:49.691Z,140.57
2022-12-17T03:12:35.231Z,97.55
2022-12-17T03:15:20.649Z,92.00
2022-12-17T03:18:05.900Z,88.32
2022-12-17T03:20:51.163Z,114.38
2022-12-17T03:23:36.481Z,84.53
2022-12-17T03:26:22.541Z,83.57
2022-12-17T03:29:07.964Z,92.20
2022-12-17T03:31:53.230Z,118.70
2022-12-17T03:34:38.478Z,117.10
2022-12-17T03:37:24.187Z,98.47
2022-12-17T03:40:09.511Z,77.50
2022-12-17T03:42:54.789Z,83.03
2022-12-17T03:45:39.963Z,86.05
2022-12-17T03:48:26.692Z,85.00
2022-12-17T03:51:12.740Z,111.20
2022-12-17T03:53:58.165Z,116.95
2022-12-17T03:56:43.678Z,105.57
2022-12-17T03:59:29.022Z,107.13
2022-12-17T04:02:14.764Z,113.18
2022-12-17T04:05:00.143Z,83.05
2022-12-17T04:07:45.387Z,113.03
2022-12-17T04:10:30.704Z,105.75
2022-12-17T04:13:15.972Z,68.05
2022-12-17T04:16:01.440Z,92.40
2022-12-17T04:18:46.915Z,104.30
2022-12-17T04:21:32.180Z,109.88
2022-12-17T04:24:17.599Z,95.28
2022-12-17T04:27:02.882Z,90.57
2022-12-17T04:29:48.260Z,87.55
2022-12-17T04:32:35.368Z,113.80
2022-12-17T04:35:20.949Z,68.93
2022-12-17T04:38:07.727Z,81.88
2022-12-17T04:40:52.964Z,70.72
2022-12-17T04:43:38.709Z,72.28
2022-12-17T04:46:24.268Z,68.53
2022-12-17T04:49:09.731Z,165.70
2022-12-17T04:51:55.076Z,100.60
2022-12-17T04:54:40.372Z,101.90
2022-12-17T04:57:25.814Z,172.13
2022-12-17T05:00:11.046Z,104.15
2022-12-17T05:02:56.653Z,101.75
2022-12-17T05:05:42.028Z,111.85
2022-12-17T05:08:27.261Z,108.28
2022-12-17T05:11:12.430Z,125.28
2022-12-17T05:13:57.675Z,119.00
2022-12-17T05:16:42.988Z,96.32
2022-12-17T05:19:28.288Z,90.97
2022-12-17T05:22:13.542Z,70.22
2022-12-17T05:24:58.958Z,93.07
2022-12-17T05:27:44.526Z,91.13
2022-12-17T05:30:30.645Z,82.60
2022-12-17T05:33:22.671Z,71.88
2022-12-17T05:36:08.150Z,70.70
2022-12-17T05:38:53.694Z,67.28
2022-12-17T05:41:38.967Z,60.97
2022-12-17T05:44:24.458Z,78.07
2022-12-17T05:47:10.018Z,74.35
2022-12-17T05:49:56.559Z,75.47
2022-12-17T05:52:42.650Z,92.75
2022-12-17T05:55:28.126Z,101.53
2022-12-17T05:58:21.038Z,106.22
2022-12-17T06:01:06.263Z,111.53
2022-12-17T06:03:51.718Z,111.13
2022-12-17T06:06:50.940Z,105.03
2022-12-17T06:09:36.920Z,97.38
2022-12-17T06:12:22.274Z,98.63
2022-12-17T06:15:07.528Z,98.43
2022-12-17T06:17:52.990Z,108.95
2022-12-17T06:20:38.087Z,98.88
2022-12-17T06:23:24.900Z,106.10
2022-12-17T06:26:16.442Z,99.32
2022-12-17T06:29:02.759Z,70.65
2022-12-17T06:31:48.168Z,79.00
2022-12-17T06:34:33.889Z,95.85
2022-12-17T06:37:19.246Z,93.80
2022-12-17T06:40:04.461Z,118.38
2022-12-17T06:42:49.912Z,93.53
2022-12-17T06:45:35.345Z,108.07
2022-12-17T06:48:21.265Z,107.97
2022-12-17T06:51:06.704Z,91.15
2022-12-17T06:53:52.106Z,86.90
2022-12-17T06:56:37.269Z,98.60
2022-12-17T06:59:22.653Z,94.63
2022-12-17T07:02:08.155Z,70.53
2022-12-17T07:04:53.461Z,83.25
2022-12-17T07:07:38.893Z,62.08
2022-12-17T07:10:24.242Z,68.65
2022-12-17T07:13:09.487Z,89.10
2022-12-17T07:15:54.783Z,59.45
2022-12-17T07:18:40.107Z,54.17
2022-12-17T07:21:25.399Z,72.78
2022-12-17T07:24:10.829Z,53.13
2022-12-17T07:26:56.244Z,82.68
2022-12-17T07:29:41.592Z,50.65
2022-12-17T07:32:26.996Z,60.58
2022-12-17T07:35:12.320Z,54.70
2022-12-17T07:37:57.556Z,62.38
2022-12-17T07:40:42.954Z,49.75
2022-12-17T07:43:28.790Z,43.17
2022-12-17T07:46:14.122Z,67.47
2022-12-17T07:48:59.451Z,69.95
2022-12-17T07:51:44.892Z,45.65
2022-12-17T07:54:30.348Z,32.28
2022-12-17T07:57:15.597Z,46.03
2022-12-17T08:00:01.127Z,52.85
2022-12-17T08:02:46.576Z,46.78
2022-12-17T08:05:31.888Z,56.67
2022-12-17T08:08:17.270Z,43.75
2022-12-17T08:11:07.035Z,34.20
2022-12-17T08:13:52.447Z,50.90
2022-12-17T08:16:37.841Z,38.65
2022-12-17T08:19:23.213Z,41.58
2022-12-17T08:22:08.476Z,48.05
2022-12-17T08:24:53.867Z,40.80
2022-12-17T08:27:39.314Z,61.15
2022-12-17T08:30:30.443Z,58.47
2022-12-17T08:33:24.934Z,77.03
2022-12-17T08:36:11.507Z,76.65
2022-12-17T08:38:57.011Z,37.80
2022-12-17T08:41:42.441Z,76.22
2022-12-17T08:44:27.851Z,49.08
2022-12-17T08:47:33.076Z,68.10
2022-12-17T08:50:18.232Z,41.13
2022-12-17T08:53:03.475Z,33.95
2022-12-17T08:55:49.113Z,65.85
2022-12-17T08:58:34.585Z,65.72
2022-12-17T09:01:20.108Z,45.50
2022-12-17T09:04:06.068Z,68.53
2022-12-17T09:06:51.619Z,199.60
2022-12-17T09:09:37.030Z,87.95
2022-12-17T09:12:22.489Z,61.15
2022-12-17T09:15:07.972Z,78.88
2022-12-17T09:18:07.182Z,94.18
2022-12-17T09:20:57.160Z,68.78
2022-12-17T09:23:42.541Z,54.10
2022-12-17T09:26:27.936Z,51.92
2022-12-17T09:29:13.530Z,52.00
2022-12-17T09:31:59.130Z,50.50
2022-12-17T09:34:44.796Z,49.33
2022-12-17T09:37:30.294Z,42.50
2022-12-17T09:40:15.776Z,44.95
2022-12-17T09:43:04.321Z,60.85
2022-12-17T09:46:22.326Z,63.13
2022-12-17T09:49:15.116Z,77.90
2022-12-17T09:52:00.483Z,69.00
2022-12-17T09:55:01.367Z,77.85
2022-12-17T09:57:49.274Z,67.53
2022-12-17T10:00:37.887Z,64.20
2022-12-17T10:03:29.050Z,45.53
2022-12-17T10:06:22.216Z,57.10
2022-12-17T10:09:11.598Z,78.55
2022-12-17T10:12:00.885Z,87.93
2022-12-17T10:14:46.222Z,88.47
2022-12-17T10:17:36.124Z,68.13
2022-12-17T10:20:22.134Z,57.10
2022-12-17T10:23:22.028Z,53.38
2022-12-17T10:26:11.684Z,62.97
2022-12-17T10:28:57.082Z,68.55
2022-12-17T10:31:44.776Z,102.20
2022-12-17T10:34:39.861Z,74.32
2022-12-17T10:37:25.285Z,258.67
2022-12-17T10:40:17.762Z,260.17
2022-12-17T10:43:03.411Z,77.13
2022-12-17T10:45:50.460Z,78.30
2022-12-17T10:48:39.919Z,113.85
2022-12-17T10:51:34.423Z,66.43
2022-12-17T10:54:23.517Z,62.15
2022-12-17T10:57:11.548Z,72.82
2022-12-17T10:59:57.809Z,66.13
2022-12-17T11:02:48.548Z,63.08
2022-12-17T11:05:37.543Z,80.10
2022-12-17T11:08:23.277Z,64.55
2022-12-17T11:11:08.754Z,48.28
2022-12-17T11:13:58.758Z,56.08
2022-12-17T11:17:02.964Z,57.33
2022-12-17T11:20:09.614Z,74.95
2022-12-17T11:23:08.999Z,50.22
2022-12-17T11:26:07.123Z,57.70
2022-12-17T11:28:53.456Z,124.35
2022-12-17T11:32:04.546Z,89.47
2022-12-17T11:35:05.837Z,43.28
2022-12-17T11:38:11.498Z,89.63
2022-12-17T11:41:06.534Z,95.00
2022-12-17T11:44:10.859Z,169.35
2022-12-17T11:46:56.116Z,69.65
2022-12-17T11:49:41.405Z,73.28
2022-12-17T11:52:26.537Z,136.93
2022-12-17T11:55:31.825Z,77.82
2022-12-17T11:58:20.543Z,44.88
2022-12-17T12:01:12.030Z,76.45
2022-12-17T12:04:16.012Z,75.20
2022-12-17T12:07:01.155Z,86.18
2022-12-17T12:09:49.561Z,55.00
2022-12-17T12:12:37.991Z,96.70
2022-12-17T12:15:32.629Z,83.18
2022-12-17T12:18:23.929Z,73.70
2022-12-17T12:21:28.098Z,85.45
2022-12-17T12:24:16.413Z,75.45
2022-12-17T12:27:14.935Z,131.50
2022-12-17T12:30:02.352Z,69.70
2022-12-17T12:32:53.860Z,101.75
2022-12-17T12:35:41.511Z,72.15
2022-12-17T12:38:32.359Z,90.72
2022-12-17T12:41:21.076Z,78.85
2022-12-17T12:44:11.307Z,68.88
2022-12-17T12:47:04.646Z,90.32
2022-12-17T12:49:49.983Z,86.60
2022-12-17T12:52:42.938Z,86.10
2022-12-17T12:55:28.421Z,76.10
2022-12-17T12:58:13.623Z,75.57
2022-12-17T13:01:10.111Z,77.20
2022-12-17T13:03:58.728Z,59.72
2022-12-17T13:06:42.667Z,68.10
2022-12-17T13:09:15.463Z,42.33
2022-12-17T13:11:43.000Z,42.08
2022-12-17T13:14:32.923Z,29.17
2022-12-17T13:16:59.404Z,32.63
2022-12-17T13:19:34.659Z,25.60
2022-12-17T13:22:21.922Z,41.90
2022-12-17T13:24:51.947Z,30.95
2022-12-17T13:27:33.809Z,42.25
2022-12-17T13:30:18.728Z,46.03
2022-12-17T13:32:48.586Z,34.60
2022-12-17T13:35:21.236Z,43.83
2022-12-17T13:37:47.825Z,48.25
2022-12-17T13:40:33.270Z,40.20
2022-12-17T13:43:00.094Z,57.35
2022-12-17T13:45:27.238Z,42.83
2022-12-17T13:47:54.999Z,37.63
2022-12-17T13:50:38.368Z,39.03
2022-12-17T13:53:12.914Z,34.05
2022-12-17T13:55:40.217Z,34.97
2022-12-17T13:58:20.203Z,34.53
2022-12-17T14:00:46.763Z,51.85
2022-12-17T14:03:13.388Z,26.63
2022-12-17T14:05:43.139Z,30.05
2022-12-17T14:08:13.784Z,51.80
2022-12-17T14:10:52.302Z,43.67
2022-12-17T14:13:19.000Z,44.95
2022-12-17T14:15:48.210Z,40.10
2022-12-17T14:18:15.985Z,43.95
2022-12-17T14:20:42.660Z,41.80
2022-12-17T14:23:20.527Z,41.85
2022-12-17T14:25:49.020Z,65.20
2022-12-17T14:28:23.420Z,46.90
2022-12-17T14:31:25.014Z,27.52
2022-12-17T14:33:37.735Z,40.90
2022-12-17T14:36:09.043Z,34.78
2022-12-17T14:38:38.690Z,41.53
2022-12-17T14:41:29.771Z,34.33
2022-12-17T14:43:57.377Z,40.28
2022-12-17T14:46:24.160Z,23.23
2022-12-17T14:49:04.340Z,37.83
2022-12-17T14:51:30.882Z,43.60
2022-12-17T14:54:21.954Z,44.22
2022-12-17T14:56:49.313Z,51.35
2022-12-17T14:59:33.372Z,54.65
2022-12-17T15:02:01.799Z,46.05
2022-12-17T15:04:29.407Z,43.08
2022-12-17T15:06:56.142Z,37.75
2022-12-17T15:09:22.784Z,39.38
2022-12-17T15:11:49.430Z,50.10
2022-12-17T15:14:16.113Z,48.28
2022-12-17T15:16:42.805Z,37.20
2022-12-17T15:19:09.514Z,46.90
2022-12-17T15:21:36.227Z,30.95
2022-12-17T15:24:02.885Z,29.58
2022-12-17T15:26:29.515Z,32.13
2022-12-17T15:28:56.141Z,32.90
2022-12-17T15:31:26.173Z,34.13
2022-12-17T15:33:55.150Z,34.60
2022-12-17T15:36:21.723Z,40.28
2022-12-17T15:38:48.380Z,39.83
2022-12-17T15:41:33.764Z,38.20
2022-12-17T15:44:00.460Z,27.85
2022-12-17T15:46:27.318Z,34.63
2022-12-17T15:48:54.579Z,28.23
2022-12-17T15:51:21.345Z,52.45
2022-12-17T15:53:48.444Z,49.95
2022-12-17T15:56:19.390Z,41.53
2022-12-17T15:58:46.019Z,46.55
2022-12-17T16:01:12.847Z,44.60
2022-12-17T16:03:39.839Z,65.75
2022-12-17T16:06:06.646Z,47.03
2022-12-17T16:08:33.290Z,58.08
2022-12-17T16:10:59.980Z,57.65
2022-12-17T16:13:26.597Z,51.33
2022-12-17T16:16:02.132Z,52.58
2022-12-17T16:18:30.537Z,57.55
2022-12-17T16:21:04.500Z,64.90
2022-12-17T16:23:31.602Z,68.13
2022-12-17T16:25:59.083Z,66.90
2022-12-17T16:28:26.432Z,68.57
2022-12-17T16:31:06.839Z,61.10
2022-12-17T16:33:35.882Z,68.78
2022-12-17T16:36:03.523Z,53.15
2022-12-17T16:38:30.287Z,63.95
2022-12-17T16:41:00.737Z,66.38
2022-12-17T16:43:28.165Z,59.13
2022-12-17T16:45:54.825Z,71.55
2022-12-17T16:48:21.942Z,56.00
2022-12-17T16:50:49.364Z,38.78
2022-12-17T16:53:16.054Z,70.15
2022-12-17T16:55:43.510Z,51.67
2022-12-17T16:58:10.315Z,62.92
2022-12-17T17:00:37.082Z,80.63
2022-12-17T17:03:04.749Z,61.53
2022-12-17T17:05:32.663Z,78.45
2022-12-17T17:07:59.556Z,82.85
2022-12-17T17:10:26.122Z,95.00
2022-12-17T17:12:53.205Z,63.25
2022-12-17T17:15:20.240Z,68.00
2022-12-17T17:17:54.292Z,73.82
2022-12-17T17:20:22.832Z,69.47
2022-12-17T17:22:49.589Z,55.55
2022-12-17T17:25:16.261Z,70.68
2022-12-17T17:27:43.668Z,62.15
2022-12-17T17:30:10.830Z,60.65
2022-12-17T17:32:37.520Z,54.28
2022-12-17T17:35:04.531Z,50.67
2022-12-17T17:37:31.094Z,47.58
2022-12-17T17:39:57.662Z,60.88
2022-12-17T17:42:24.413Z,53.80
2022-12-17T17:44:51.413Z,62.13
2022-12-17T17:47:18.069Z,53.88
2022-12-17T17:49:44.746Z,56.55
2022-12-17T17:52:12.068Z,62.53
2022-12-17T17:54:39.649Z,62.00
2022-12-17T17:57:06.433Z,50.95
2022-12-17T17:59:34.281Z,62.58
2022-12-17T18:02:02.043Z,67.25
2022-12-17T18:04:28.845Z,71.80
2022-12-17T18:07:24.297Z,68.90
2022-12-17T18:09:42.294Z,64.47
2022-12-17T18:12:27.812Z,57.88
2022-12-17T18:17:41.293Z,60.10
2022-12-17T18:20:09.586Z,54.22
2022-12-17T18:22:36.670Z,59.28
2022-12-17T18:25:03.689Z,60.03
2022-12-17T18:27:30.254Z,63.72
2022-12-17T18:29:56.943Z,49.80
2022-12-17T18:32:23.705Z,61.50
2022-12-17T18:34:50.301Z,60.75
2022-12-17T18:37:16.955Z,70.53
2022-12-17T18:39:43.620Z,67.72
2022-12-17T18:42:29.180Z,73.35
2022-12-17T18:44:55.853Z,61.72
2022-12-17T18:47:22.564Z,64.70
2022-12-17T18:49:49.520Z,55.75
2022-12-17T18:52:17.280Z,77.75
2022-12-17T18:54:44.973Z,63.20
2022-12-17T18:57:12.185Z,78.45
2022-12-17T18:59:40.908Z,69.60
2022-12-17T19:02:14.977Z,58.85
2022-12-17T19:04:42.188Z,49.75
2022-12-17T19:07:09.062Z,48.67
2022-12-17T19:09:36.301Z,50.65
2022-12-17T19:12:04.247Z,64.28
2022-12-17T19:14:30.993Z,42.50
2022-12-17T19:16:58.208Z,57.67
2022-12-17T19:19:25.385Z,37.15
2022-12-17T19:21:54.797Z,43.67
2022-12-17T19:24:22.348Z,37.13
2022-12-17T19:26:49.665Z,51.92
2022-12-17T19:29:17.386Z,52.05
2022-12-17T19:31:44.412Z,52.47
2022-12-17T19:34:12.727Z,57.60
2022-12-17T19:36:40.002Z,54.85
2022-12-17T19:39:07.546Z,14.60
2022-12-17T19:41:34.663Z,18.35
2022-12-17T19:44:02.848Z,19.92
2022-12-17T19:46:33.403Z,32.47
2022-12-17T19:49:01.304Z,22.27
2022-12-17T19:51:29.314Z,42.53
2022-12-17T19:53:55.970Z,53.60
2022-12-17T19:56:23.877Z,48.63
2022-12-17T19:58:52.641Z,50.20
2022-12-17T20:01:21.071Z,53.05
2022-12-17T20:03:48.136Z,55.63
2022-12-17T20:06:15.789Z,66.70
2022-12-17T20:08:42.689Z,55.72
2022-12-17T20:11:29.291Z,65.95
2022-12-17T20:13:57.335Z,58.00
2022-12-17T20:16:24.251Z,58.83
2022-12-17T20:18:51.048Z,63.50
2022-12-17T20:21:18.228Z,60.80
2022-12-17T20:23:48.455Z,60.97
2022-12-17T20:26:15.628Z,52.80
2022-12-17T20:28:42.587Z,47.38
2022-12-17T20:31:09.828Z,42.80
2022-12-17T20:33:36.979Z,39.15
2022-12-17T20:36:05.335Z,49.08
2022-12-17T20:38:32.754Z,32.67
2022-12-17T20:40:59.754Z,44.55
2022-12-17T20:43:27.258Z,41.47
2022-12-17T20:45:57.565Z,36.92
2022-12-17T20:48:24.665Z,33.83
2022-12-17T20:50:51.301Z,50.92
2022-12-17T20:53:18.339Z,29.40
2022-12-17T20:55:45.205Z,28.30
2022-12-17T20:58:13.663Z,35.30
2022-12-17T21:00:40.544Z,22.02
2022-12-17T21:03:07.573Z,34.70
2022-12-17T21:05:35.433Z,25.27
2022-12-17T21:08:02.390Z,13.20
2022-12-17T21:10:29.129Z,16.48
2022-12-17T21:13:14.601Z,15.52
2022-12-17T21:15:47.905Z,22.88
2022-12-17T21:18:15.881Z,25.83
2022-12-17T21:20:42.691Z,29.65
2022-12-17T21:23:09.965Z,51.38
2022-12-17T21:25:38.827Z,52.45
2022-12-17T21:28:05.435Z,46.03
2022-12-17T21:30:35.252Z,43.95
2022-12-17T21:33:01.885Z,40.47
2022-12-17T21:35:28.696Z,54.38
2022-12-17T21:37:55.755Z,48.80
2022-12-17T21:40:22.707Z,47.80
2022-12-17T21:43:02.485Z,37.88
2022-12-17T21:45:39.548Z,43.67
2022-12-17T21:48:11.299Z,46.45
2022-12-17T21:50:42.534Z,41.15
2022-12-17T21:53:10.831Z,44.70
2022-12-17T21:55:37.783Z,40.80
2022-12-17T21:58:04.865Z,34.33
2022-12-17T22:00:31.880Z,45.80
2022-12-17T22:02:58.568Z,44.58
2022-12-17T22:05:25.350Z,48.72
2022-12-17T22:07:52.318Z,37.08
2022-12-17T22:10:41.892Z,43.05
2022-12-17T22:13:25.144Z,32.63
2022-12-17T22:15:55.168Z,37.13
2022-12-17T22:18:22.119Z,31.45
2022-12-17T22:21:01.457Z,34.15
2022-12-17T22:23:28.165Z,36.90
2022-12-17T22:25:55.231Z,39.20
2022-12-17T22:28:21.919Z,38.38
2022-12-17T22:31:09.397Z,29.75
2022-12-17T22:34:00.914Z,43.85
2022-12-17T22:38:41.689Z,39.20
2022-12-17T22:41:48.319Z,41.92
2022-12-17T22:44:38.737Z,47.45
2022-12-17T22:45:09.786Z,49.67
2022-12-17T22:47:38.085Z,42.67
2022-12-17T22:50:04.979Z,48.40
2022-12-17T22:52:32.328Z,38.42
2022-12-17T22:54:59.134Z,47.10
2022-12-17T22:57:37.571Z,45.78
2022-12-17T23:00:28.658Z,46.90
2022-12-17T23:02:55.470Z,44.85
2022-12-17T23:05:22.821Z,48.72
2022-12-17T23:07:49.884Z,46.05
2022-12-17T23:10:16.761Z,47.85
2022-12-17T23:12:52.785Z,38.08
2022-12-17T23:15:30.121Z,41.67
2022-12-17T23:17:58.246Z,35.28
2022-12-17T23:20:25.797Z,46.08
2022-12-17T23:22:52.550Z,49.60
2022-12-17T23:25:20.999Z,37.08
2022-12-17T23:27:48.323Z,41.47
2022-12-17T23:30:16.474Z,37.05
2022-12-17T23:32:44.290Z,40.85
2022-12-17T23:35:11.883Z,50.17
2022-12-17T23:37:40.464Z,32.90
2022-12-17T23:40:08.513Z,22.05
2022-12-17T23:42:35.068Z,36.83
2022-12-17T23:45:01.663Z,47.10
2022-12-17T23:47:28.864Z,49.50
2022-12-17T23:49:55.472Z,43.58
2022-12-17T23:52:23.926Z,42.83
2022-12-17T23:54:50.587Z,39.42
2022-12-17T23:57:17.089Z,38.22
2022-12-17T23:59:43.612Z,43.25
